Terminal Aerodrome Forecast
Issued by NWS

Home | Current Version | Previous Version | Text Only | Print | Product List | Glossary On
Versions: 1 2 3 4 5 6 7 8 9 10 11 12
000
FTUS46 KHNX 251700
TAFVIS
TAF
KVIS 251720Z 2518/2618 VRB03KT P6SM SCT250
     FM252000 31008KT P6SM SCT250
     FM260500 VRB03KT P6SM SCT250=

USA.gov is the U.S. government's official web portal to all federal, state and local government web resources and services.